Time,TemperatureF,DewpointF,PressureIn,WindDirection,WindDirectionDegrees,WindSpeedMPH,WindSpeedGustMPH,Humidity,HourlyPrecipIn,Conditions,Clouds,dailyrainin,SoftwareType,DateUTC
2013-09-26 00:10:00,58.7,53.0,29.89,SE,143,0.0,2.0,82,0.00,,,0.00,weatherlink.com 1.10,2013-09-26 05:10:00,
2013-09-26 00:25:00,58.4,53.0,29.89,SSW,204,1.0,2.0,83,0.00,,,0.00,weatherlink.com 1.10,2013-09-26 05:25:00,
2013-09-26 00:40:00,57.9,53.0,29.89,East,87,0.0,2.0,84,0.00,,,0.00,weatherlink.com 1.10,2013-09-26 05:40:00,
2013-09-26 00:55:00,58.3,54.0,29.89,East,98,0.0,3.0,84,0.00,,,0.00,weatherlink.com 1.10,2013-09-26 05:55:00,
2013-09-26 01:10:00,58.2,53.0,29.89,SSE,154,0.0,2.0,84,0.00,,,0.00,weatherlink.com 1.10,2013-09-26 06:10:00,
2013-09-26 01:25:00,58.3,54.0,29.89,SSE,162,0.0,2.0,85,0.00,,,0.00,weatherlink.com 1.10,2013-09-26 06:25:00,
2013-09-26 01:40:00,58.1,54.0,29.89,SW,228,0.0,4.0,85,0.00,,,0.00,weatherlink.com 1.10,2013-09-26 06:40:00,
2013-09-26 01:55:00,57.8,54.0,29.90,SE,130,2.0,2.0,86,0.00,,,0.00,weatherlink.com 1.10,2013-09-26 06:55:00,
2013-09-26 02:10:00,57.7,54.0,29.90,North,5,0.0,2.0,86,0.00,,,0.00,weatherlink.com 1.10,2013-09-26 07:10:00,
2013-09-26 02:25:00,58.0,54.0,29.89,SW,231,0.0,4.0,86,0.00,,,0.00,weatherlink.com 1.10,2013-09-26 07:25:00,
2013-09-26 02:40:00,58.1,54.0,29.89,East,93,1.0,5.0,86,0.00,,,0.00,weatherlink.com 1.10,2013-09-26 07:40:00,
2013-09-26 02:55:00,57.9,54.0,29.89,NNE,30,5.0,6.0,86,0.00,,,0.00,weatherlink.com 1.10,2013-09-26 07:55:00,
2013-09-26 03:10:00,57.8,54.0,29.89,ESE,113,0.0,4.0,87,0.00,,,0.00,weatherlink.com 1.10,2013-09-26 08:10:00,
2013-09-26 03:25:00,57.9,54.0,29.89,South,173,0.0,5.0,86,0.00,,,0.00,weatherlink.com 1.10,2013-09-26 08:25:00,
2013-09-26 03:40:00,57.7,54.0,29.88,ESE,113,0.0,2.0,87,0.00,,,0.00,weatherlink.com 1.10,2013-09-26 08:40:00,
2013-09-26 03:55:00,57.9,54.0,29.88,East,89,4.0,5.0,87,0.00,,,0.00,weatherlink.com 1.10,2013-09-26 08:55:00,
2013-09-26 04:10:00,57.9,54.0,29.88,North,4,5.0,7.0,87,0.00,,,0.00,weatherlink.com 1.10,2013-09-26 09:10:00,
2013-09-26 04:25:00,57.7,54.0,29.88,East,98,1.0,8.0,87,0.00,,,0.00,weatherlink.com 1.10,2013-09-26 09:25:00,
2013-09-26 04:40:00,57.5,54.0,29.88,NNE,27,2.0,3.0,87,0.00,,,0.00,weatherlink.com 1.10,2013-09-26 09:40:00,
2013-09-26 04:55:00,57.3,54.0,29.88,ENE,70,0.0,5.0,87,0.00,,,0.00,weatherlink.com 1.10,2013-09-26 09:55:00,
2013-09-26 05:10:00,57.2,53.0,29.89,SSE,148,1.0,2.0,87,0.00,,,0.00,weatherlink.com 1.10,2013-09-26 10:10:00,
2013-09-26 05:25:00,57.1,53.0,29.88,SE,136,1.0,3.0,87,0.00,,,0.00,weatherlink.com 1.10,2013-09-26 10:25:00,
2013-09-26 05:40:00,57.0,53.0,29.88,ENE,74,0.0,5.0,87,0.00,,,0.00,weatherlink.com 1.10,2013-09-26 10:40:00,
2013-09-26 05:55:00,56.9,53.0,29.88,NNE,16,1.0,5.0,87,0.00,,,0.00,weatherlink.com 1.10,2013-09-26 10:55:00,
2013-09-26 06:10:00,56.7,53.0,29.88,SSW,211,0.0,5.0,87,0.00,,,0.00,weatherlink.com 1.10,2013-09-26 11:10:00,
2013-09-26 06:25:00,56.6,53.0,29.89,South,173,2.0,5.0,87,0.00,,,0.00,weatherlink.com 1.10,2013-09-26 11:25:00,
2013-09-26 06:40:00,56.5,53.0,29.89,ESE,121,3.0,13.0,87,0.00,,,0.00,weatherlink.com 1.10,2013-09-26 11:40:00,
2013-09-26 06:55:00,56.3,53.0,29.89,NE,41,1.0,5.0,87,0.00,,,0.00,weatherlink.com 1.10,2013-09-26 11:55:00,
2013-09-26 07:10:00,56.2,52.0,29.89,NNE,13,2.0,10.0,87,0.00,,,0.00,weatherlink.com 1.10,2013-09-26 12:10:00,
2013-09-26 07:25:00,56.2,52.0,29.90,North,9,1.0,3.0,86,0.00,,,0.00,weatherlink.com 1.10,2013-09-26 12:25:00,
2013-09-26 07:40:00,56.3,52.0,29.90,ESE,103,0.0,6.0,86,0.00,,,0.00,weatherlink.com 1.10,2013-09-26 12:40:00,
2013-09-26 07:55:00,56.5,52.0,29.90,ENE,76,1.0,7.0,86,0.00,,,0.00,weatherlink.com 1.10,2013-09-26 12:55:00,
2013-09-26 08:10:00,56.7,52.0,29.90,SE,137,1.0,5.0,85,0.00,,,0.00,weatherlink.com 1.10,2013-09-26 13:10:00,
2013-09-26 08:25:00,57.0,53.0,29.90,ENE,75,2.0,3.0,85,0.00,,,0.00,weatherlink.com 1.10,2013-09-26 13:25:00,
2013-09-26 08:40:00,57.7,53.0,29.90,SSE,167,0.0,7.0,83,0.00,,,0.00,weatherlink.com 1.10,2013-09-26 13:40:00,
2013-09-26 08:55:00,58.3,53.0,29.91,SW,217,3.0,5.0,82,0.00,,,0.00,weatherlink.com 1.10,2013-09-26 13:55:00,
2013-09-26 09:10:00,59.2,53.0,29.91,SE,131,0.0,5.0,81,0.00,,,0.00,weatherlink.com 1.10,2013-09-26 14:10:00,
2013-09-26 09:25:00,60.9,54.0,29.91,SE,136,1.0,6.0,78,0.00,,,0.00,weatherlink.com 1.10,2013-09-26 14:25:00,
2013-09-26 09:40:00,62.5,55.0,29.91,SSW,210,1.0,7.0,75,0.00,,,0.00,weatherlink.com 1.10,2013-09-26 14:40:00,
2013-09-26 09:55:00,63.9,55.0,29.91,ESE,115,1.0,6.0,73,0.00,,,0.00,weatherlink.com 1.10,2013-09-26 14:55:00,
2013-09-26 10:11:00,65.3,56.0,29.90,South,169,0.0,5.0,71,0.00,,,0.00,weatherlink.com 1.10,2013-09-26 15:11:00,
2013-09-26 10:26:00,66.3,56.0,29.90,SSE,163,0.0,5.0,70,0.00,,,0.00,weatherlink.com 1.10,2013-09-26 15:26:00,
2013-09-26 10:41:00,67.1,57.0,29.90,East,84,1.0,6.0,69,0.00,,,0.00,weatherlink.com 1.10,2013-09-26 15:41:00,
2013-09-26 10:56:00,68.0,57.0,29.90,SE,142,0.0,7.0,67,0.00,,,0.00,weatherlink.com 1.10,2013-09-26 15:56:00,
2013-09-26 11:11:00,68.8,57.0,29.89,ENE,59,0.0,6.0,66,0.00,,,0.00,weatherlink.com 1.10,2013-09-26 16:11:00,
2013-09-26 11:26:00,70.0,57.0,29.89,ESE,104,0.0,7.0,64,0.00,,,0.00,weatherlink.com 1.10,2013-09-26 16:26:00,
2013-09-26 11:41:00,71.1,58.0,29.89,SSE,155,0.0,5.0,64,0.00,,,0.00,weatherlink.com 1.10,2013-09-26 16:41:00,
2013-09-26 11:56:00,72.6,59.0,29.88,NE,38,1.0,9.0,63,0.00,,,0.00,weatherlink.com 1.10,2013-09-26 16:56:00,
2013-09-26 12:11:00,72.9,59.0,29.88,ESE,121,2.0,9.0,61,0.00,,,0.00,weatherlink.com 1.10,2013-09-26 17:11:00,
2013-09-26 12:26:00,74.0,60.0,29.87,SE,143,0.0,7.0,62,0.00,,,0.00,weatherlink.com 1.10,2013-09-26 17:26:00,
2013-09-26 12:41:00,74.9,60.0,29.87,NE,54,2.0,8.0,60,0.00,,,0.00,weatherlink.com 1.10,2013-09-26 17:41:00,
2013-09-26 12:56:00,75.9,60.0,29.86,SSE,163,1.0,12.0,58,0.00,,,0.00,weatherlink.com 1.10,2013-09-26 17:56:00,
2013-09-26 13:11:00,76.1,60.0,29.86,SE,129,1.0,8.0,58,0.00,,,0.00,weatherlink.com 1.10,2013-09-26 18:11:00,
2013-09-26 13:26:00,77.0,60.0,29.85,SE,132,2.0,12.0,57,0.00,,,0.00,weatherlink.com 1.10,2013-09-26 18:26:00,
2013-09-26 13:41:00,78.0,61.0,29.85,SSW,201,3.0,12.0,57,0.00,,,0.00,weatherlink.com 1.10,2013-09-26 18:41:00,
2013-09-26 13:56:00,78.4,62.0,29.84,ESE,121,2.0,8.0,57,0.00,,,0.00,weatherlink.com 1.10,2013-09-26 18:56:00,
2013-09-26 14:11:00,79.0,62.0,29.83,ENE,60,5.0,10.0,56,0.00,,,0.00,weatherlink.com 1.10,2013-09-26 19:11:00,
2013-09-26 14:27:00,79.0,63.0,29.83,NE,40,5.0,9.0,58,0.00,,,0.00,weatherlink.com 1.10,2013-09-26 19:27:00,
2013-09-26 14:41:00,79.9,63.0,29.83,ESE,113,0.0,7.0,56,0.00,,,0.00,weatherlink.com 1.10,2013-09-26 19:41:00,
2013-09-26 14:57:00,80.1,63.0,29.83,SSE,152,2.0,8.0,56,0.00,,,0.00,weatherlink.com 1.10,2013-09-26 19:57:00,
2013-09-26 15:12:00,80.7,63.0,29.82,South,184,1.0,9.0,55,0.00,,,0.00,weatherlink.com 1.10,2013-09-26 20:12:00,
2013-09-26 15:27:00,80.8,63.0,29.82,South,172,1.0,10.0,55,0.00,,,0.00,weatherlink.com 1.10,2013-09-26 20:27:00,
2013-09-26 15:57:00,80.8,63.0,29.81,WSW,237,2.0,8.0,55,0.00,,,0.00,weatherlink.com 1.10,2013-09-26 20:57:00,
2013-09-26 16:12:00,80.5,63.0,29.80,NE,42,10.0,11.0,56,0.00,,,0.00,weatherlink.com 1.10,2013-09-26 21:12:00,
2013-09-26 16:27:00,80.4,63.0,29.80,ESE,104,4.0,11.0,55,0.00,,,0.00,weatherlink.com 1.10,2013-09-26 21:27:00,
2013-09-26 16:42:00,80.2,64.0,29.80,NE,34,2.0,10.0,58,0.00,,,0.00,weatherlink.com 1.10,2013-09-26 21:42:00,
2013-09-26 16:57:00,80.1,63.0,29.80,SW,233,1.0,6.0,56,0.00,,,0.00,weatherlink.com 1.10,2013-09-26 21:57:00,
2013-09-26 17:12:00,80.1,63.0,29.80,West,270,1.0,7.0,57,0.00,,,0.00,weatherlink.com 1.10,2013-09-26 22:12:00,
2013-09-26 17:27:00,79.9,62.0,29.80,SW,217,1.0,6.0,55,0.00,,,0.00,weatherlink.com 1.10,2013-09-26 22:27:00,
2013-09-26 17:42:00,79.4,63.0,29.80,ESE,119,2.0,10.0,57,0.00,,,0.00,weatherlink.com 1.10,2013-09-26 22:42:00,
2013-09-26 17:57:00,78.9,63.0,29.80,SSW,194,2.0,11.0,58,0.00,,,0.00,weatherlink.com 1.10,2013-09-26 22:57:00,
2013-09-26 18:12:00,78.3,63.0,29.80,SE,141,2.0,9.0,60,0.00,,,0.00,weatherlink.com 1.10,2013-09-26 23:12:00,
2013-09-26 18:42:00,76.5,63.0,29.80,NNW,333,0.0,7.0,63,0.00,,,0.00,weatherlink.com 1.10,2013-09-26 23:42:00,
2013-09-26 18:57:00,75.9,63.0,29.80,NNE,27,2.0,8.0,65,0.00,,,0.00,weatherlink.com 1.10,2013-09-26 23:57:00,
2013-09-26 19:12:00,75.3,63.0,29.80,WSW,240,3.0,7.0,66,0.00,,,0.00,weatherlink.com 1.10,2013-09-27 00:12:00,
2013-09-26 19:27:00,74.7,63.0,29.80,SSE,166,0.0,8.0,67,0.00,,,0.00,weatherlink.com 1.10,2013-09-27 00:27:00,
2013-09-26 19:42:00,74.1,63.0,29.80,North,6,3.0,6.0,69,0.00,,,0.00,weatherlink.com 1.10,2013-09-27 00:42:00,
2013-09-26 19:57:00,73.6,63.0,29.80,NE,47,2.0,7.0,70,0.00,,,0.00,weatherlink.com 1.10,2013-09-27 00:57:00,
2013-09-26 20:12:00,73.0,63.0,29.81,WNW,288,2.0,6.0,71,0.00,,,0.00,weatherlink.com 1.10,2013-09-27 01:12:00,
2013-09-26 20:27:00,72.4,63.0,29.81,North,5,0.0,6.0,72,0.00,,,0.00,weatherlink.com 1.10,2013-09-27 01:27:00,
2013-09-26 20:42:00,72.1,63.0,29.82,SSW,208,3.0,8.0,73,0.00,,,0.00,weatherlink.com 1.10,2013-09-27 01:42:00,
2013-09-26 20:57:00,71.5,63.0,29.82,SSE,148,1.0,15.0,74,0.00,,,0.00,weatherlink.com 1.10,2013-09-27 01:57:00,
2013-09-26 21:12:00,71.2,63.0,29.83,ESE,109,2.0,6.0,74,0.00,,,0.00,weatherlink.com 1.10,2013-09-27 02:12:00,
2013-09-26 21:27:00,71.0,63.0,29.84,East,84,3.0,6.0,75,0.00,,,0.00,weatherlink.com 1.10,2013-09-27 02:27:00,
2013-09-26 21:42:00,70.8,63.0,29.84,NW,325,2.0,7.0,75,0.00,,,0.00,weatherlink.com 1.10,2013-09-27 02:42:00,
2013-09-26 21:57:00,70.6,62.0,29.84,WNW,291,2.0,6.0,75,0.00,,,0.00,weatherlink.com 1.10,2013-09-27 02:57:00,
2013-09-26 22:12:00,70.6,62.0,29.84,SSE,149,1.0,6.0,75,0.00,,,0.00,weatherlink.com 1.10,2013-09-27 03:12:00,
2013-09-26 22:27:00,70.2,62.0,29.84,ENE,70,3.0,5.0,75,0.00,,,0.00,weatherlink.com 1.10,2013-09-27 03:27:00,
2013-09-26 22:42:00,70.3,62.0,29.85,ESE,118,0.0,7.0,75,0.00,,,0.00,weatherlink.com 1.10,2013-09-27 03:42:00,
2013-09-26 22:57:00,70.1,62.0,29.85,SSE,155,7.0,7.0,75,0.00,,,0.00,weatherlink.com 1.10,2013-09-27 03:57:00,
2013-09-26 23:12:00,69.6,62.0,29.85,ESE,115,1.0,8.0,76,0.00,,,0.00,weatherlink.com 1.10,2013-09-27 04:12:00,
2013-09-26 23:27:00,69.2,61.0,29.86,ESE,110,1.0,5.0,76,0.00,,,0.00,weatherlink.com 1.10,2013-09-27 04:27:00,
2013-09-26 23:42:00,68.5,61.0,29.87,SSW,200,0.0,1.0,78,0.00,,,0.00,weatherlink.com 1.10,2013-09-27 04:42:00,
2013-09-26 23:57:00,68.3,61.0,29.88,SSE,155,0.0,4.0,78,0.00,,,0.00,weatherlink.com 1.10,2013-09-27 04:57:00,